createdAt,value
2023-03-15T00:01:56.308Z,3.18
2023-03-15T00:04:28.064Z,3.15
2023-03-15T00:06:59.376Z,3.17
2023-03-15T00:09:29.616Z,3.14
2023-03-15T00:11:59.750Z,3.17
2023-03-15T00:14:29.959Z,3.24
2023-03-15T00:17:00.120Z,3.34
2023-03-15T00:19:30.331Z,3.41
2023-03-15T00:22:00.739Z,3.48
2023-03-15T00:24:30.870Z,3.50
2023-03-15T00:27:01.152Z,3.58
2023-03-15T00:29:31.347Z,3.58
2023-03-15T00:32:01.724Z,3.54
2023-03-15T00:34:33.889Z,3.49
2023-03-15T00:37:04.093Z,3.46
2023-03-15T00:39:38.008Z,3.47
2023-03-15T00:42:08.355Z,3.44
2023-03-15T00:44:38.477Z,3.44
2023-03-15T00:47:12.835Z,3.42
2023-03-15T00:49:42.931Z,3.38
2023-03-15T00:52:13.152Z,3.35
2023-03-15T00:54:43.855Z,3.35
2023-03-15T00:57:14.302Z,3.40
2023-03-15T00:59:45.152Z,3.39
2023-03-15T01:02:15.364Z,3.31
2023-03-15T01:04:45.707Z,3.27
2023-03-15T01:07:15.890Z,3.21
2023-03-15T01:09:48.441Z,3.23
2023-03-15T01:12:18.850Z,3.23
2023-03-15T01:14:48.917Z,3.17
2023-03-15T01:17:19.126Z,3.13
2023-03-15T01:19:49.601Z,3.09
2023-03-15T01:22:20.299Z,3.06
2023-03-15T01:24:50.460Z,2.94
2023-03-15T01:27:21.018Z,3.01
2023-03-15T01:29:51.200Z,2.96
2023-03-15T01:32:21.384Z,2.98
2023-03-15T01:34:52.019Z,2.96
2023-03-15T01:37:24.858Z,2.91
2023-03-15T01:39:55.007Z,2.81
2023-03-15T01:42:25.277Z,2.73
2023-03-15T01:45:02.561Z,2.74
2023-03-15T01:47:32.983Z,2.73
2023-03-15T01:50:07.369Z,2.70
2023-03-15T01:52:42.034Z,2.69
2023-03-15T01:55:17.146Z,2.68
2023-03-15T01:57:52.404Z,2.66
2023-03-15T02:00:22.930Z,2.67
2023-03-15T02:02:58.357Z,2.71
2023-03-15T02:05:33.206Z,2.69
2023-03-15T02:08:07.166Z,2.72
2023-03-15T02:10:47.058Z,2.76
2023-03-15T02:13:22.950Z,2.75
2023-03-15T02:15:53.894Z,2.75
2023-03-15T02:18:24.845Z,2.75
2023-03-15T02:21:13.032Z,2.74
2023-03-15T02:23:48.263Z,2.70
2023-03-15T02:26:30.273Z,2.63
2023-03-15T02:29:01.403Z,2.65
2023-03-15T02:31:38.078Z,2.64
2023-03-15T02:34:08.937Z,2.65
2023-03-15T02:36:39.088Z,2.63
2023-03-15T02:39:21.750Z,2.60
2023-03-15T02:41:55.733Z,2.59
2023-03-15T02:44:32.040Z,2.54
2023-03-15T02:47:10.682Z,2.51
2023-03-15T02:49:45.083Z,2.50
2023-03-15T02:52:15.258Z,2.38
2023-03-15T02:54:45.582Z,2.48
2023-03-15T02:57:17.589Z,2.59
2023-03-15T02:59:51.102Z,2.58
2023-03-15T03:02:21.786Z,2.59
2023-03-15T03:04:53.062Z,2.69
2023-03-15T03:07:23.188Z,2.72
2023-03-15T03:09:53.374Z,2.79
2023-03-15T03:12:23.628Z,2.77
2023-03-15T03:14:53.811Z,2.80
2023-03-15T03:17:24.676Z,2.76
2023-03-15T03:19:54.929Z,2.80
2023-03-15T03:22:25.096Z,2.82
2023-03-15T03:24:55.454Z,2.82
2023-03-15T03:27:25.641Z,2.84
2023-03-15T03:29:55.844Z,2.83
2023-03-15T03:32:26.051Z,2.86
2023-03-15T03:35:05.502Z,2.86
2023-03-15T03:37:36.054Z,2.86
2023-03-15T03:40:08.563Z,2.76
2023-03-15T03:42:38.707Z,2.78
2023-03-15T03:45:09.519Z,2.70
2023-03-15T03:47:39.691Z,2.68
2023-03-15T03:50:11.951Z,2.66
2023-03-15T03:52:44.036Z,2.65
2023-03-15T03:55:14.334Z,2.62
2023-03-15T03:57:45.020Z,2.51
2023-03-15T04:00:15.541Z,2.57
2023-03-15T04:02:46.011Z,2.54
2023-03-15T04:05:16.511Z,2.52
2023-03-15T04:07:46.972Z,2.49
2023-03-15T04:10:17.150Z,2.42
2023-03-15T04:12:47.330Z,2.39
2023-03-15T04:15:17.535Z,2.32
2023-03-15T04:17:47.720Z,2.28
2023-03-15T04:20:18.069Z,2.25
2023-03-15T04:22:49.775Z,2.23
2023-03-15T04:25:21.096Z,2.23
2023-03-15T04:27:59.009Z,2.18
2023-03-15T04:30:30.827Z,2.21
2023-03-15T04:33:03.660Z,2.20
2023-03-15T04:35:35.429Z,2.19
2023-03-15T04:38:06.846Z,2.13
2023-03-15T04:40:37.190Z,2.04
2023-03-15T04:43:07.399Z,1.96
2023-03-15T04:45:37.545Z,1.93
2023-03-15T04:48:07.701Z,1.85
2023-03-15T04:50:41.146Z,1.81
2023-03-15T04:53:11.384Z,1.74
2023-03-15T04:55:41.761Z,1.73
2023-03-15T04:58:11.892Z,1.82
2023-03-15T05:00:42.137Z,1.81
2023-03-15T05:03:12.416Z,1.77
2023-03-15T05:05:42.687Z,1.81
2023-03-15T05:08:12.765Z,1.87
2023-03-15T05:10:43.262Z,1.86
2023-03-15T05:13:13.397Z,1.89
2023-03-15T05:15:43.542Z,2.01
2023-03-15T05:18:14.421Z,2.01
2023-03-15T05:20:44.585Z,1.96
2023-03-15T05:23:14.845Z,1.96
2023-03-15T05:25:54.149Z,1.92
2023-03-15T05:28:25.509Z,1.83
2023-03-15T05:30:55.729Z,1.81
2023-03-15T05:33:26.435Z,1.78
2023-03-15T05:35:56.706Z,1.83
2023-03-15T05:38:27.148Z,1.82
2023-03-15T05:40:57.337Z,1.90
2023-03-15T05:43:27.594Z,1.98
2023-03-15T05:45:57.732Z,1.96
2023-03-15T05:48:27.933Z,2.03
2023-03-15T05:50:58.338Z,2.06
2023-03-15T05:53:28.476Z,2.12
2023-03-15T05:55:58.577Z,2.04
2023-03-15T05:58:28.697Z,2.18
2023-03-15T06:00:58.911Z,2.29
2023-03-15T06:03:29.178Z,2.34
2023-03-15T06:05:59.600Z,2.40
2023-03-15T06:08:29.806Z,2.46
2023-03-15T06:11:00.003Z,2.43
2023-03-15T06:13:30.497Z,2.49
2023-03-15T06:16:00.627Z,2.53
2023-03-15T06:18:31.231Z,2.51
2023-03-15T06:21:01.405Z,2.53
2023-03-15T06:23:31.501Z,2.47
2023-03-15T06:26:01.678Z,2.47
2023-03-15T06:28:31.952Z,2.51
2023-03-15T06:31:08.372Z,2.48
2023-03-15T06:33:39.397Z,2.51
2023-03-15T06:36:10.136Z,2.52
2023-03-15T06:38:40.337Z,2.43
2023-03-15T06:41:12.629Z,2.38
2023-03-15T06:43:43.192Z,2.43
2023-03-15T06:46:13.496Z,2.43
2023-03-15T06:48:44.220Z,2.43
2023-03-15T06:51:14.394Z,2.50
2023-03-15T06:53:44.570Z,2.51
2023-03-15T06:56:15.052Z,2.43
2023-03-15T06:58:45.410Z,2.46
2023-03-15T07:01:16.825Z,2.45
2023-03-15T07:03:47.234Z,2.34
2023-03-15T07:06:17.430Z,2.29
2023-03-15T07:08:47.630Z,2.28
2023-03-15T07:11:17.862Z,2.27
2023-03-15T07:13:48.062Z,2.30
2023-03-15T07:16:18.311Z,2.33
2023-03-15T07:18:48.680Z,2.40
2023-03-15T07:21:18.849Z,2.48
2023-03-15T07:23:50.137Z,2.47
2023-03-15T07:26:20.577Z,2.47
2023-03-15T07:28:50.859Z,2.48
2023-03-15T07:31:21.038Z,2.45
2023-03-15T07:33:51.243Z,2.48
2023-03-15T07:36:22.432Z,2.42
2023-03-15T07:38:52.646Z,2.50
2023-03-15T07:41:22.725Z,2.57
2023-03-15T07:43:53.019Z,2.63
2023-03-15T07:46:23.677Z,2.67
2023-03-15T07:48:54.576Z,2.70
2023-03-15T07:51:24.701Z,2.78
2023-03-15T07:53:54.930Z,2.88
2023-03-15T07:56:25.128Z,2.95
2023-03-15T07:58:56.668Z,2.91
2023-03-15T08:01:26.811Z,2.85
2023-03-15T08:03:57.029Z,2.88
2023-03-15T08:06:27.293Z,2.98
2023-03-15T08:08:57.575Z,2.93
2023-03-15T08:11:27.886Z,2.93
2023-03-15T08:13:58.155Z,2.88
2023-03-15T08:17:24.333Z,2.90
2023-03-15T08:19:54.450Z,2.94
2023-03-15T08:22:24.599Z,2.87
2023-03-15T08:24:54.838Z,2.85
2023-03-15T08:27:25.949Z,2.94
2023-03-15T08:29:56.571Z,3.03
2023-03-15T08:32:28.052Z,3.08
2023-03-15T08:34:58.614Z,3.10
2023-03-15T08:37:28.753Z,3.17
2023-03-15T08:40:01.205Z,3.17
2023-03-15T08:42:31.407Z,3.13
2023-03-15T08:45:02.309Z,3.19
2023-03-15T08:47:32.506Z,3.26
2023-03-15T08:50:05.556Z,3.34
2023-03-15T08:52:36.552Z,3.32
2023-03-15T08:55:07.867Z,3.42
2023-03-15T08:57:37.946Z,3.37
2023-03-15T09:00:09.659Z,3.50
2023-03-15T09:02:42.547Z,3.61
2023-03-15T09:05:12.761Z,3.97
2023-03-15T09:07:43.858Z,4.22
2023-03-15T09:10:16.033Z,4.49
2023-03-15T09:12:48.507Z,4.65
2023-03-15T09:15:19.731Z,4.74
2023-03-15T09:17:53.725Z,4.70
2023-03-15T09:20:28.364Z,4.74
2023-03-15T09:22:59.106Z,4.79
2023-03-15T09:25:29.492Z,4.78
2023-03-15T09:27:59.640Z,4.94
2023-03-15T09:30:30.258Z,5.20
2023-03-15T09:33:01.000Z,5.48
2023-03-15T09:35:31.267Z,5.71
2023-03-15T09:38:04.066Z,5.70
2023-03-15T09:40:39.982Z,5.60
2023-03-15T09:43:10.387Z,5.47
2023-03-15T09:46:26.273Z,5.39
2023-03-15T09:49:41.598Z,5.28
2023-03-15T09:52:33.310Z,5.07
2023-03-15T09:55:23.660Z,4.72
2023-03-15T09:58:02.738Z,4.65
2023-03-15T10:00:47.138Z,4.59
2023-03-15T10:03:29.381Z,4.57
2023-03-15T10:06:07.647Z,4.53
2023-03-15T10:08:38.155Z,4.61
2023-03-15T10:11:35.706Z,4.84
2023-03-15T10:14:20.805Z,5.24
2023-03-15T10:16:52.257Z,5.43
2023-03-15T10:19:40.303Z,5.47
2023-03-15T10:22:21.355Z,5.35
2023-03-15T10:25:05.438Z,5.23
2023-03-15T10:27:43.352Z,5.09
2023-03-15T10:30:18.174Z,4.98
2023-03-15T10:32:56.322Z,5.00
2023-03-15T10:35:26.784Z,5.05
2023-03-15T10:37:57.212Z,5.17
2023-03-15T10:40:49.188Z,5.43
2023-03-15T10:43:32.545Z,5.83
2023-03-15T10:46:21.791Z,6.00
2023-03-15T10:49:02.406Z,6.06
2023-03-15T10:51:38.203Z,5.97
2023-03-15T10:54:25.193Z,5.95
2023-03-15T10:57:17.210Z,6.11
2023-03-15T11:00:06.767Z,6.18
2023-03-15T11:02:37.746Z,6.09
2023-03-15T11:05:12.539Z,6.17
2023-03-15T11:07:59.455Z,6.19
2023-03-15T11:10:34.906Z,6.19
2023-03-15T11:13:22.443Z,6.56
2023-03-15T11:16:05.697Z,6.90
2023-03-15T11:18:46.824Z,6.60
2023-03-15T11:21:20.653Z,6.12
2023-03-15T11:23:52.771Z,5.87
2023-03-15T11:26:33.397Z,5.74
2023-03-15T11:29:24.518Z,5.99
2023-03-15T11:31:56.415Z,6.15
2023-03-15T11:34:41.506Z,6.18
2023-03-15T11:37:17.924Z,6.05
2023-03-15T11:40:05.050Z,5.95
2023-03-15T11:42:49.711Z,5.90
2023-03-15T11:45:29.052Z,5.89
2023-03-15T11:48:08.764Z,5.88
2023-03-15T11:50:40.262Z,5.90
2023-03-15T11:53:15.530Z,5.82
2023-03-15T11:55:53.754Z,5.87
2023-03-15T11:58:33.206Z,6.03
2023-03-15T12:01:06.070Z,6.23
2023-03-15T12:03:44.528Z,6.48
2023-03-15T12:06:17.641Z,7.28
2023-03-15T12:08:52.482Z,8.14
2023-03-15T12:11:22.589Z,9.39
2023-03-15T12:14:00.841Z,10.16
2023-03-15T12:16:38.223Z,10.73
2023-03-15T12:19:17.039Z,11.45
2023-03-15T12:21:57.479Z,12.44
2023-03-15T12:24:31.109Z,13.67
2023-03-15T12:27:05.889Z,14.20
2023-03-15T12:29:36.485Z,13.37
2023-03-15T12:32:14.629Z,11.85
2023-03-15T12:34:53.507Z,10.71
2023-03-15T12:37:43.714Z,10.04
2023-03-15T12:40:19.058Z,9.49
2023-03-15T12:42:49.409Z,9.20
2023-03-15T12:45:19.475Z,9.78
2023-03-15T12:47:52.515Z,9.85
2023-03-15T12:50:44.338Z,9.32
2023-03-15T12:53:29.700Z,8.68
2023-03-15T12:56:18.543Z,8.04
2023-03-15T12:58:54.334Z,7.62
2023-03-15T13:01:26.097Z,7.17
2023-03-15T13:03:58.591Z,6.83
2023-03-15T13:07:16.562Z,6.44
2023-03-15T13:10:16.353Z,6.08
2023-03-15T13:13:01.747Z,5.76
2023-03-15T13:15:40.683Z,5.57
2023-03-15T13:18:18.160Z,5.21
2023-03-15T13:21:18.960Z,4.93
2023-03-15T13:23:56.279Z,4.68
2023-03-15T13:26:35.430Z,4.55
2023-03-15T13:29:17.796Z,4.42
2023-03-15T13:32:01.631Z,4.34
2023-03-15T13:34:34.382Z,4.48
2023-03-15T13:37:04.844Z,4.59
2023-03-15T13:39:35.480Z,4.67
2023-03-15T13:42:17.325Z,4.80
2023-03-15T13:44:47.479Z,4.89
2023-03-15T13:47:23.597Z,4.99
2023-03-15T13:49:53.805Z,5.11
2023-03-15T13:52:24.156Z,5.32
2023-03-15T13:54:54.540Z,5.41
2023-03-15T13:57:24.780Z,5.39
2023-03-15T14:00:01.962Z,5.36
2023-03-15T14:02:52.317Z,5.33
2023-03-15T14:05:27.695Z,5.31
2023-03-15T14:08:06.256Z,5.26
2023-03-15T14:10:40.528Z,5.22
2023-03-15T14:13:53.230Z,5.22
2023-03-15T14:17:01.072Z,5.23
2023-03-15T14:19:35.116Z,5.31
2023-03-15T14:22:17.971Z,5.43
2023-03-15T14:24:51.327Z,5.63
2023-03-15T14:27:25.933Z,5.86
2023-03-15T14:30:00.215Z,6.04
2023-03-15T14:32:36.909Z,6.12
2023-03-15T14:35:18.716Z,7.18
2023-03-15T14:38:00.586Z,9.85
2023-03-15T14:40:36.471Z,12.44
2023-03-15T14:43:08.316Z,14.03
2023-03-15T14:45:40.755Z,15.08
2023-03-15T14:48:21.264Z,15.87
2023-03-15T14:50:51.913Z,16.66
2023-03-15T14:53:24.947Z,17.34
2023-03-15T14:55:55.299Z,17.52
2023-03-15T14:58:25.458Z,16.15
2023-03-15T15:00:58.148Z,14.50
2023-03-15T15:03:41.455Z,12.94
2023-03-15T15:06:15.168Z,11.93
2023-03-15T15:08:47.591Z,11.27
2023-03-15T15:11:20.297Z,10.56
2023-03-15T15:13:50.633Z,9.86
2023-03-15T15:16:20.989Z,9.27
2023-03-15T15:18:51.145Z,8.77
2023-03-15T15:21:28.548Z,8.29
2023-03-15T15:23:59.519Z,7.95
2023-03-15T15:26:31.486Z,7.66
2023-03-15T15:29:01.599Z,7.79
2023-03-15T15:31:34.815Z,8.84
2023-03-15T15:34:05.445Z,9.85
2023-03-15T15:36:41.972Z,9.71
2023-03-15T15:39:32.422Z,9.12
2023-03-15T15:42:02.757Z,8.54
2023-03-15T15:44:32.944Z,8.06
2023-03-15T15:47:03.166Z,8.15
2023-03-15T15:49:33.348Z,9.05
2023-03-15T15:52:04.672Z,10.07
2023-03-15T15:54:36.327Z,10.80
2023-03-15T15:57:07.291Z,10.74
2023-03-15T15:59:37.503Z,10.44
2023-03-15T16:02:15.798Z,9.73
2023-03-15T16:04:46.553Z,9.07
2023-03-15T16:07:18.400Z,8.48
2023-03-15T16:09:55.083Z,8.01
2023-03-15T16:12:26.660Z,7.67
2023-03-15T16:15:03.510Z,7.41
2023-03-15T16:17:34.829Z,7.17
2023-03-15T16:20:10.528Z,6.90
2023-03-15T16:23:01.742Z,6.64
2023-03-15T16:25:46.147Z,6.37
2023-03-15T16:28:19.526Z,6.28
2023-03-15T16:30:52.164Z,6.10
2023-03-15T16:33:24.474Z,5.91
2023-03-15T16:35:56.067Z,5.81
2023-03-15T16:38:32.796Z,5.66
2023-03-15T16:41:03.398Z,5.51
2023-03-15T16:43:33.591Z,5.37
2023-03-15T16:46:14.305Z,5.15
2023-03-15T16:48:44.599Z,4.95
2023-03-15T16:51:16.262Z,4.83
2023-03-15T16:53:46.491Z,4.75
2023-03-15T16:56:16.888Z,4.66
2023-03-15T16:58:50.274Z,4.55
2023-03-15T17:01:20.869Z,4.56
2023-03-15T17:03:51.068Z,4.43
2023-03-15T17:06:26.057Z,4.39
2023-03-15T17:09:00.271Z,4.32
2023-03-15T17:11:32.419Z,4.21
2023-03-15T17:14:02.635Z,4.24
2023-03-15T17:16:33.053Z,4.13
2023-03-15T17:19:04.520Z,4.11
2023-03-15T17:21:36.460Z,4.07
2023-03-15T17:24:07.504Z,3.99
2023-03-15T17:26:39.302Z,3.97
2023-03-15T17:29:09.489Z,3.90
2023-03-15T17:31:39.987Z,3.78
2023-03-15T17:34:10.663Z,3.70
2023-03-15T17:36:41.380Z,3.61
2023-03-15T17:39:17.033Z,3.60
2023-03-15T17:41:48.561Z,3.56
2023-03-15T17:44:18.678Z,3.49
2023-03-15T17:46:48.957Z,3.43
2023-03-15T17:49:19.169Z,3.37
2023-03-15T17:51:52.249Z,3.22
2023-03-15T17:54:22.453Z,3.27
2023-03-15T17:56:52.714Z,3.17
2023-03-15T17:59:22.812Z,3.16
2023-03-15T18:01:53.011Z,3.13
2023-03-15T18:04:23.629Z,3.05
2023-03-15T18:06:54.532Z,3.04
2023-03-15T18:09:26.597Z,3.03
2023-03-15T18:11:56.907Z,2.89
2023-03-15T18:14:27.010Z,2.97
2023-03-15T18:16:57.378Z,2.91
2023-03-15T18:19:28.751Z,2.87
2023-03-15T18:21:58.914Z,2.86
2023-03-15T18:24:29.140Z,2.78
2023-03-15T18:26:59.411Z,2.73
2023-03-15T18:29:29.542Z,2.68
2023-03-15T18:31:59.924Z,2.68
2023-03-15T18:34:30.187Z,2.69
2023-03-15T18:37:00.352Z,2.67
2023-03-15T18:39:30.462Z,2.63
2023-03-15T18:42:01.131Z,2.58
2023-03-15T18:44:32.108Z,2.47
2023-03-15T18:47:02.382Z,2.45
2023-03-15T18:49:32.580Z,2.48
2023-03-15T18:52:02.735Z,2.42
2023-03-15T18:54:32.939Z,2.42
2023-03-15T18:57:03.148Z,2.35
2023-03-15T18:59:33.623Z,2.35
2023-03-15T19:02:05.044Z,2.30
2023-03-15T19:04:35.416Z,2.28
2023-03-15T19:07:05.630Z,2.30
2023-03-15T19:09:36.084Z,2.25
2023-03-15T19:12:06.669Z,2.18
2023-03-15T19:14:37.633Z,2.15
2023-03-15T19:17:07.859Z,2.12
2023-03-15T19:19:38.055Z,2.07
2023-03-15T19:22:08.225Z,2.07
2023-03-15T19:24:38.772Z,2.04
2023-03-15T19:27:08.981Z,1.93
2023-03-15T19:29:39.080Z,1.98
2023-03-15T19:32:09.271Z,2.00
2023-03-15T19:34:39.539Z,1.99
2023-03-15T19:37:09.858Z,1.97
2023-03-15T19:39:40.168Z,1.96
2023-03-15T19:42:10.362Z,1.89
2023-03-15T19:44:40.469Z,1.84
2023-03-15T19:47:10.822Z,1.82
2023-03-15T19:49:41.552Z,1.81
2023-03-15T19:52:11.726Z,1.79
2023-03-15T19:54:42.321Z,1.73
2023-03-15T19:57:12.646Z,1.75
2023-03-15T19:59:43.233Z,1.72
2023-03-15T20:02:14.320Z,1.72
2023-03-15T20:04:45.049Z,1.67
2023-03-15T20:07:15.316Z,1.63
2023-03-15T20:09:45.850Z,1.63
2023-03-15T20:12:16.041Z,1.57
2023-03-15T20:14:48.913Z,1.54
2023-03-15T20:17:20.681Z,1.53
2023-03-15T20:19:52.402Z,1.56
2023-03-15T20:22:22.602Z,1.52
2023-03-15T20:24:52.677Z,1.52
2023-03-15T20:27:22.826Z,1.49
2023-03-15T20:29:53.215Z,1.49
2023-03-15T20:32:23.470Z,1.54
2023-03-15T20:34:57.368Z,1.55
2023-03-15T20:37:30.306Z,1.53
2023-03-15T20:40:01.638Z,1.48
2023-03-15T20:42:31.874Z,1.41
2023-03-15T20:45:02.100Z,1.42
2023-03-15T20:47:32.277Z,1.43
2023-03-15T20:50:02.610Z,1.46
2023-03-15T20:52:34.657Z,1.45
2023-03-15T20:55:06.259Z,1.49
2023-03-15T20:57:37.284Z,1.51
2023-03-15T21:00:12.934Z,1.51
2023-03-15T21:02:43.165Z,1.49
2023-03-15T21:05:14.362Z,1.48
2023-03-15T21:07:45.322Z,1.43
2023-03-15T21:10:16.085Z,1.38
2023-03-15T21:12:46.305Z,1.34
2023-03-15T21:15:19.041Z,1.29
2023-03-15T21:17:49.909Z,1.28
2023-03-15T21:20:20.003Z,1.24
2023-03-15T21:22:50.358Z,1.20
2023-03-15T21:25:20.655Z,1.17
2023-03-15T21:27:51.438Z,1.16
2023-03-15T21:30:22.712Z,1.09
2023-03-15T21:32:53.351Z,1.05
2023-03-15T21:35:25.608Z,1.05
2023-03-15T21:37:55.814Z,1.02
2023-03-15T21:40:26.145Z,1.02
2023-03-15T21:42:56.381Z,1.01
2023-03-15T21:45:26.701Z,0.99
2023-03-15T21:47:57.065Z,1.00
2023-03-15T21:50:27.769Z,0.98
2023-03-15T21:52:57.927Z,0.96
2023-03-15T21:55:31.542Z,0.92
2023-03-15T21:58:02.696Z,0.90
2023-03-15T22:00:32.882Z,0.83
2023-03-15T22:03:04.362Z,0.82
2023-03-15T22:05:35.515Z,0.80
2023-03-15T22:08:06.116Z,0.79
2023-03-15T22:10:36.322Z,0.76
2023-03-15T22:13:06.467Z,0.71
2023-03-15T22:15:36.997Z,0.69
2023-03-15T22:18:07.265Z,0.66
2023-03-15T22:20:38.786Z,0.66
2023-03-15T22:23:09.380Z,0.58
2023-03-15T22:25:40.344Z,0.61
2023-03-15T22:28:10.725Z,0.58
2023-03-15T22:30:41.993Z,0.48
2023-03-15T22:33:12.472Z,0.53
2023-03-15T22:35:42.765Z,0.54
2023-03-15T22:38:13.488Z,0.52
2023-03-15T22:40:43.566Z,0.56
2023-03-15T22:43:13.821Z,0.44
2023-03-15T22:45:43.904Z,0.43
2023-03-15T22:48:14.596Z,0.38
2023-03-15T22:50:44.705Z,0.43
2023-03-15T22:53:15.006Z,0.44
2023-03-15T22:55:45.303Z,0.44
2023-03-15T22:58:15.485Z,0.44
2023-03-15T23:00:45.744Z,0.38
2023-03-15T23:03:16.452Z,0.42
2023-03-15T23:05:46.643Z,0.43
2023-03-15T23:08:16.819Z,0.40
2023-03-15T23:10:47.178Z,0.27
2023-03-15T23:13:17.434Z,0.41
2023-03-15T23:15:47.658Z,0.37
2023-03-15T23:18:17.866Z,0.30
2023-03-15T23:21:02.625Z,0.28
2023-03-15T23:23:32.720Z,0.18
2023-03-15T23:26:03.260Z,0.27
2023-03-15T23:28:34.165Z,0.29
2023-03-15T23:31:06.930Z,0.28
2023-03-15T23:33:37.411Z,0.32
2023-03-15T23:36:07.972Z,0.30
2023-03-15T23:38:38.126Z,0.28
2023-03-15T23:41:08.629Z,0.32
2023-03-15T23:43:38.846Z,0.33
2023-03-15T23:46:10.073Z,0.25
2023-03-15T23:48:42.435Z,0.32
2023-03-15T23:51:12.842Z,0.28
2023-03-15T23:53:43.074Z,0.25
2023-03-15T23:56:13.224Z,0.22
2023-03-15T23:58:43.310Z,0.20
